Time;durP1;ratioP1;P1;durP2;ratioP2;P2;SDS_P1;SDS_P2;PMS_P1;PMS_P2;Temp;Humidity;BMP_temperature;BMP_pressure;BME280_temperature;BME280_humidity;BME280_pressure;Samples;Min_cycle;Max_cycle;Signal;HPM_P1;HPM_P2
2023/12/07 00:01:14;;;;;;;72.30;32.70;;;;;;;-0.54;79.54;99036.73;105731;1256;97421;-70
2023/12/07 00:03:42;;;;;;;64.30;31.10;;;;;;;-0.55;79.36;99039.20;105330;1266;110015;-70
2023/12/07 00:06:10;;;;;;;62.50;29.80;;;;;;;-0.53;79.33;99044.56;105204;1255;96610;-70
2023/12/07 00:08:38;;;;;;;61.50;29.80;;;;;;;-0.52;79.30;99043.30;105469;1256;107615;-70
2023/12/07 00:11:05;;;;;;;59.00;29.20;;;;;;;-0.52;79.43;99041.73;105284;1256;96686;-70
2023/12/07 00:13:33;;;;;;;62.30;28.80;;;;;;;-0.51;79.39;99042.25;105587;1257;96588;-71
2023/12/07 00:16:02;;;;;;;62.00;29.10;;;;;;;-0.50;79.36;99044.13;105598;1252;110602;-70
2023/12/07 00:18:30;;;;;;;58.70;29.20;;;;;;;-0.50;79.49;99046.20;105454;1255;96628;-69
2023/12/07 00:20:57;;;;;;;58.80;28.00;;;;;;;-0.50;79.46;99046.91;105374;1257;107480;-69
2023/12/07 00:23:25;;;;;;;60.00;27.40;;;;;;;-0.48;79.56;99045.98;105771;1255;96598;-70
2023/12/07 00:25:53;;;;;;;57.90;27.20;;;;;;;-0.47;79.44;99047.18;105425;1252;96690;-70
2023/12/07 00:28:23;;;;;;;56.30;24.90;;;;;;;-0.48;79.43;99046.34;105483;1253;110013;-70
2023/12/07 00:30:51;;;;;;;55.90;26.50;;;;;;;-0.48;79.37;99046.52;105366;1255;96585;-69
2023/12/07 00:33:18;;;;;;;53.60;26.10;;;;;;;-0.46;79.57;99044.73;105151;1258;107724;-71
2023/12/07 00:35:48;;;;;;;55.50;28.50;;;;;;;-0.46;79.52;99043.30;105456;1257;96622;-69
2023/12/07 00:38:15;;;;;;;58.60;26.30;;;;;;;-0.45;79.58;99048.53;105692;1253;96544;-69
2023/12/07 00:40:43;;;;;;;54.30;26.70;;;;;;;-0.46;79.57;99046.81;105742;1255;109823;-70
2023/12/07 00:43:12;;;;;;;57.60;26.20;;;;;;;-0.44;79.70;99046.23;105479;1267;96662;-70
2023/12/07 00:45:40;;;;;;;53.80;25.80;;;;;;;-0.42;79.68;99046.70;105533;1266;105971;-70
2023/12/07 00:48:07;;;;;;;54.90;25.50;;;;;;;-0.40;79.57;99048.21;105625;1258;97986;-69
2023/12/07 00:50:35;;;;;;;52.90;24.60;;;;;;;-0.39;79.55;99045.04;105298;1253;96600;-71
2023/12/07 00:53:03;;;;;;;53.70;26.90;;;;;;;-0.38;79.64;99045.02;105496;1256;109967;-70
2023/12/07 00:55:31;;;;;;;58.80;26.60;;;;;;;-0.38;79.72;99045.18;105209;1253;96816;-70
2023/12/07 00:58:01;;;;;;;53.00;24.70;;;;;;;-0.36;79.69;99043.20;105648;1264;107614;-71
2023/12/07 01:00:29;;;;;;;52.40;24.60;;;;;;;-0.33;79.75;99042.95;105481;1256;97529;-71
2023/12/07 01:02:57;;;;;;;52.20;26.70;;;;;;;-0.31;79.65;99037.32;105498;1255;96524;-69
2023/12/07 01:05:24;;;;;;;49.70;24.80;;;;;;;-0.31;79.70;99034.86;105700;1257;109919;-71
2023/12/07 01:07:52;;;;;;;49.10;22.90;;;;;;;-0.29;79.70;99031.88;105233;1257;96629;-69
2023/12/07 01:10:20;;;;;;;47.20;24.90;;;;;;;-0.29;79.77;99028.73;105649;1255;107776;-70
2023/12/07 01:12:49;;;;;;;45.10;23.20;;;;;;;-0.28;79.71;99036.05;105474;1255;96620;-70
2023/12/07 01:15:17;;;;;;;49.00;22.60;;;;;;;-0.29;79.79;99033.43;105535;1253;96604;-70
2023/12/07 01:17:44;;;;;;;50.20;24.70;;;;;;;-0.26;79.73;99036.86;105653;1252;109342;-69
2023/12/07 01:20:13;;;;;;;45.10;21.70;;;;;;;-0.24;79.76;99040.10;105730;1255;96699;-71
2023/12/07 01:22:41;;;;;;;51.70;25.50;;;;;;;-0.24;79.83;99039.59;105487;1256;107609;-70
2023/12/07 01:25:09;;;;;;;54.90;26.30;;;;;;;-0.23;79.79;99039.02;105365;1268;96701;-71
2023/12/07 01:27:37;;;;;;;48.90;22.80;;;;;;;-0.23;79.82;99041.96;105695;1253;97576;-69
2023/12/07 01:30:06;;;;;;;48.50;23.10;;;;;;;-0.21;79.83;99039.31;105392;1253;109898;-69
2023/12/07 01:32:34;;;;;;;44.10;21.10;;;;;;;-0.20;79.74;99041.36;105907;1257;96563;-71
2023/12/07 01:35:02;;;;;;;42.70;20.90;;;;;;;-0.20;79.88;99039.77;105858;1252;107300;-70
2023/12/07 01:37:30;;;;;;;44.30;21.50;;;;;;;-0.19;79.89;99040.62;105573;1256;96593;-70
2023/12/07 01:39:58;;;;;;;43.90;21.80;;;;;;;-0.18;79.85;99040.25;105441;1257;96688;-70
2023/12/07 01:42:26;;;;;;;44.00;21.50;;;;;;;-0.18;79.76;99038.34;105451;1255;108466;-70
2023/12/07 01:44:54;;;;;;;45.30;23.30;;;;;;;-0.18;79.77;99032.73;105332;1256;96477;-72
2023/12/07 01:47:22;;;;;;;40.40;20.10;;;;;;;-0.17;79.78;99030.46;105190;1258;107482;-70
2023/12/07 01:49:50;;;;;;;42.10;22.00;;;;;;;-0.16;79.96;99028.88;105452;1259;97890;-71
2023/12/07 01:52:22;;;;;;;41.50;20.20;;;;;;;-0.15;79.89;99027.97;105238;1256;97953;-70
2023/12/07 01:54:50;;;;;;;43.90;22.50;;;;;;;-0.14;79.90;99027.95;105274;1255;109441;-71
2023/12/07 01:57:18;;;;;;;42.70;20.60;;;;;;;-0.14;79.93;99030.02;105506;1254;96613;-70
2023/12/07 01:59:46;;;;;;;41.90;19.80;;;;;;;-0.13;79.94;99027.93;105759;1256;107560;-70
2023/12/07 02:02:14;;;;;;;39.50;18.90;;;;;;;-0.12;79.86;99028.07;105296;1256;96550;-68
2023/12/07 02:04:42;;;;;;;39.40;20.60;;;;;;;-0.12;79.90;99028.91;105474;1257;97557;-69
2023/12/07 02:07:11;;;;;;;41.20;20.00;;;;;;;-0.11;79.95;99031.52;105687;1255;109941;-69
2023/12/07 02:09:39;;;;;;;40.90;20.40;;;;;;;-0.10;80.04;99033.92;105291;1257;96625;-69
2023/12/07 02:12:07;;;;;;;42.10;19.40;;;;;;;-0.09;79.93;99033.02;105437;1253;107165;-71
2023/12/07 02:14:34;;;;;;;39.80;19.20;;;;;;;-0.09;80.04;99036.34;105591;1254;96684;-70
2023/12/07 02:17:18;;;;;;;41.60;20.60;;;;;;;-0.09;79.92;99037.58;105456;1253;96598;-69
2023/12/07 02:19:56;;;;;;;42.00;19.00;;;;;;;-0.10;80.04;99037.75;105334;1257;109988;-70
2023/12/07 02:22:29;;;;;;;40.00;17.30;;;;;;;-0.10;80.00;99032.37;105408;1256;96614;-70
2023/12/07 02:25:09;;;;;;;42.00;20.70;;;;;;;-0.10;79.91;99035.13;105547;1253;107123;-69
2023/12/07 02:27:41;;;;;;;38.00;17.60;;;;;;;-0.09;79.95;99038.77;105400;1255;96582;-69
2023/12/07 02:30:10;;;;;;;38.40;17.70;;;;;;;-0.09;79.91;99035.30;105507;1256;97835;-69
2023/12/07 02:32:40;;;;;;;34.40;16.20;;;;;;;-0.10;79.94;99040.55;105329;1255;109508;-71
2023/12/07 02:35:09;;;;;;;38.30;19.50;;;;;;;-0.10;79.93;99042.30;105647;1259;96632;-70
2023/12/07 02:37:43;;;;;;;36.20;16.90;;;;;;;-0.09;80.12;99039.66;105547;1253;106518;-70
2023/12/07 02:40:14;;;;;;;;;;;;;;;-0.09;80.10;99038.44;105632;1252;97407;-71
2023/12/07 02:42:43;;;;;;;32.90;16.00;;;;;;;-0.10;80.20;99038.64;105506;1255;96614;-69
2023/12/07 02:45:12;;;;;;;33.80;15.30;;;;;;;-0.09;80.12;99039.80;105568;1253;109631;-70
2023/12/07 02:47:40;;;;;;;35.90;16.40;;;;;;;-0.09;80.13;99040.33;105555;1254;96727;-73
2023/12/07 02:50:09;;;;;;;33.00;16.10;;;;;;;-0.08;80.09;99042.41;105517;1253;108347;-70
2023/12/07 02:52:38;;;;;;;31.70;14.80;;;;;;;-0.07;80.09;99044.81;105666;1269;97500;-71
2023/12/07 02:55:06;;;;;;;30.50;14.70;;;;;;;-0.06;80.23;99046.52;105352;1253;96653;-72
2023/12/07 02:57:34;;;;;;;32.30;15.60;;;;;;;-0.05;80.25;99047.20;105706;1257;109699;-71
2023/12/07 03:00:07;;;;;;;29.30;15.20;;;;;;;-0.04;80.23;99046.64;105268;1257;96635;-70
2023/12/07 03:02:38;;;;;;;32.80;14.40;;;;;;;-0.03;80.13;99048.02;105639;1255;109221;-70
2023/12/07 03:05:07;;;;;;;31.60;15.60;;;;;;;-0.01;80.23;99046.75;105410;1254;96683;-71
2023/12/07 03:07:35;;;;;;;27.30;13.00;;;;;;;0.01;80.09;99044.42;105572;1256;96713;-68
2023/12/07 03:10:03;;;;;;;34.60;16.20;;;;;;;0.01;80.21;99040.73;105516;1253;109104;-70
2023/12/07 03:12:31;;;;;;;30.20;14.00;;;;;;;0.02;80.17;99038.45;105757;1255;96524;-70
2023/12/07 03:14:59;;;;;;;31.10;15.10;;;;;;;0.02;80.34;99034.98;105409;1253;107565;-70
2023/12/07 03:17:27;;;;;;;32.60;15.10;;;;;;;0.02;80.23;99037.75;105370;1256;97548;-70
2023/12/07 03:19:55;;;;;;;31.00;14.30;;;;;;;0.00;80.31;99034.15;105552;1257;96604;-69
2023/12/07 03:22:24;;;;;;;31.20;14.80;;;;;;;0.01;80.33;99035.54;105464;1258;110192;-69
2023/12/07 03:24:52;;;;;;;32.70;14.60;;;;;;;0.02;80.24;99039.34;105441;1257;97951;-70
2023/12/07 03:27:20;;;;;;;34.30;16.10;;;;;;;0.02;80.19;99042.63;105501;1254;108372;-72
2023/12/07 03:29:48;;;;;;;34.50;14.80;;;;;;;0.01;80.41;99039.71;105635;1253;97546;-69
2023/12/07 03:32:16;;;;;;;28.70;13.50;;;;;;;0.01;80.36;99045.13;105627;1253;97914;-71
2023/12/07 03:34:44;;;;;;;33.10;15.70;;;;;;;0.02;80.27;99045.80;105167;1258;109521;-70
2023/12/07 03:37:12;;;;;;;30.50;14.00;;;;;;;0.03;80.42;99045.75;105441;1255;97181;-69
2023/12/07 03:39:39;;;;;;;27.50;12.30;;;;;;;0.04;80.36;99047.46;105496;1256;107078;-69
2023/12/07 03:42:07;;;;;;;29.20;13.20;;;;;;;0.04;80.24;99049.55;105400;1257;97929;-71
2023/12/07 03:44:55;;;;;;;29.50;13.80;;;;;;;0.05;80.54;99048.66;105620;1256;96520;-73
2023/12/07 03:47:23;;;;;;;31.10;12.90;;;;;;;0.05;80.48;99051.10;105690;1253;110280;-69
2023/12/07 03:49:51;;;;;;;30.50;14.40;;;;;;;0.05;80.40;99051.44;105232;1256;96646;-71
2023/12/07 03:52:18;;;;;;;32.00;14.40;;;;;;;0.05;80.44;99050.38;105561;1254;107652;-70
2023/12/07 03:54:46;;;;;;;30.60;13.70;;;;;;;0.06;80.37;99049.32;105614;1255;96698;-70
2023/12/07 03:57:14;;;;;;;28.90;13.40;;;;;;;0.06;80.37;99047.57;105483;1253;96685;-69
2023/12/07 03:59:42;;;;;;;31.80;14.20;;;;;;;0.05;80.41;99047.61;105503;1255;109420;-70
2023/12/07 04:02:10;;;;;;;32.60;15.30;;;;;;;0.05;80.30;99048.48;105429;1257;98036;-70
2023/12/07 04:04:38;;;;;;;31.50;13.80;;;;;;;0.04;80.57;99048.33;105361;1252;105523;-69
2023/12/07 04:07:06;;;;;;;32.60;14.30;;;;;;;0.04;80.54;99048.33;105473;1255;96639;-70
2023/12/07 04:09:34;;;;;;;30.70;14.50;;;;;;;0.03;80.48;99047.66;105420;1255;96562;-71
2023/12/07 04:12:02;;;;;;;32.20;14.90;;;;;;;0.04;80.64;99051.83;105502;1255;110506;-69
2023/12/07 04:14:30;;;;;;;30.30;14.00;;;;;;;0.04;80.48;99055.48;105532;1255;96521;-69
2023/12/07 04:16:58;;;;;;;31.80;13.20;;;;;;;0.04;80.61;99062.29;105463;1256;107615;-70
2023/12/07 04:19:26;;;;;;;28.50;14.10;;;;;;;0.04;80.69;99062.30;105468;1255;96600;-69
2023/12/07 04:21:54;;;;;;;33.10;14.70;;;;;;;0.03;80.67;99063.68;105317;1255;96536;-70
2023/12/07 04:24:22;;;;;;;30.40;13.60;;;;;;;0.04;80.72;99068.20;105449;1255;109448;-70
2023/12/07 04:26:49;;;;;;;27.60;13.20;;;;;;;0.04;80.53;99067.67;105308;1267;96515;-68
2023/12/07 04:29:17;;;;;;;31.00;15.10;;;;;;;0.05;80.63;99068.02;105448;1253;105386;-71
2023/12/07 04:31:45;;;;;;;31.70;14.00;;;;;;;0.05;80.58;99069.75;105452;1257;96548;-69
2023/12/07 04:34:13;;;;;;;31.20;14.10;;;;;;;0.07;80.69;99072.13;105463;1256;96526;-69
2023/12/07 04:36:41;;;;;;;30.00;14.20;;;;;;;0.07;80.71;99070.90;105553;1253;108917;-69
2023/12/07 04:39:08;;;;;;;31.70;15.00;;;;;;;0.09;80.58;99072.60;105209;1255;96606;-69
2023/12/07 04:41:36;;;;;;;29.70;14.20;;;;;;;0.10;80.70;99072.73;105468;1255;106122;-71
2023/12/07 04:44:04;;;;;;;29.30;14.20;;;;;;;0.10;80.72;99071.33;105497;1253;96645;-71
2023/12/07 04:46:32;;;;;;;33.80;14.60;;;;;;;0.12;80.64;99076.35;105488;1255;96582;-71
2023/12/07 04:49:00;;;;;;;27.90;13.80;;;;;;;0.12;80.74;99076.16;105726;1252;109174;-73
2023/12/07 04:51:28;;;;;;;30.10;13.50;;;;;;;0.12;80.60;99076.16;105636;1256;96594;-70
2023/12/07 04:53:56;;;;;;;31.80;15.40;;;;;;;0.13;80.70;99074.23;105252;1255;108158;-71
2023/12/07 04:56:40;;;;;;;30.90;14.70;;;;;;;0.13;80.74;99076.30;105470;1256;96599;-71
2023/12/07 04:59:10;;;;;;;32.20;14.00;;;;;;;0.13;80.90;99079.64;105654;1253;96732;-70
2023/12/07 05:01:38;;;;;;;31.70;15.40;;;;;;;0.13;80.69;99076.31;106008;1252;109860;-71
2023/12/07 05:04:06;;;;;;;30.30;14.10;;;;;;;0.14;80.76;99081.32;105545;1253;96575;-70
2023/12/07 05:06:35;;;;;;;30.60;14.50;;;;;;;0.16;80.69;99082.88;105471;1258;107619;-69
2023/12/07 05:09:03;;;;;;;34.20;16.40;;;;;;;0.15;80.55;99083.05;105664;1254;97130;-70
2023/12/07 05:11:31;;;;;;;32.80;16.00;;;;;;;0.14;80.74;99081.52;105730;1255;96515;-70
2023/12/07 05:13:58;;;;;;;33.20;14.60;;;;;;;0.15;80.77;99085.16;105489;1256;109958;-72
2023/12/07 05:16:26;;;;;;;34.00;15.30;;;;;;;0.16;80.84;99085.66;105739;1255;97823;-72
2023/12/07 05:18:54;;;;;;;31.40;14.10;;;;;;;0.16;80.82;99088.98;105251;1259;108215;-72
2023/12/07 05:21:22;;;;;;;32.10;15.20;;;;;;;0.16;80.88;99090.55;105302;1257;97671;-73
2023/12/07 05:23:50;;;;;;;29.50;13.90;;;;;;;0.17;80.89;99092.44;105520;1255;96616;-71
2023/12/07 05:26:17;;;;;;;34.00;15.60;;;;;;;0.16;80.70;99097.69;105213;1256;109497;-71
2023/12/07 05:28:45;;;;;;;33.00;15.10;;;;;;;0.16;80.97;99099.08;105757;1253;97468;-71
2023/12/07 05:31:19;;;;;;;35.60;15.80;;;;;;;0.16;80.90;99099.09;105468;1256;107225;-70
2023/12/07 05:33:47;;;;;;;32.20;16.10;;;;;;;0.15;80.87;99098.23;105151;1256;97585;-71
2023/12/07 05:36:15;;;;;;;31.90;14.50;;;;;;;0.16;80.91;99102.05;105366;1257;96659;-70
2023/12/07 05:38:43;;;;;;;35.90;17.80;;;;;;;0.17;81.04;99103.24;105822;1258;109967;-71
2023/12/07 05:41:12;;;;;;;38.70;17.30;;;;;;;0.17;80.86;99105.52;105602;1256;96597;-72
2023/12/07 05:43:44;;;;;;;33.50;16.60;;;;;;;0.16;80.88;99109.55;105891;1269;107618;-70
2023/12/07 05:46:12;;;;;;;33.40;16.00;;;;;;;0.15;80.65;99111.48;105793;1255;97037;-69
2023/12/07 05:48:39;;;;;;;36.40;16.60;;;;;;;0.16;80.89;99113.91;105337;1256;97963;-71
2023/12/07 05:51:17;;;;;;;39.60;17.40;;;;;;;0.17;80.90;99116.84;105455;1255;108801;-69
2023/12/07 05:53:45;;;;;;;35.70;16.50;;;;;;;0.16;81.11;99114.08;105321;1258;96955;-70
2023/12/07 05:56:19;;;;;;;36.90;17.60;;;;;;;0.16;80.90;99114.77;105493;1255;107641;-69
2023/12/07 05:58:48;;;;;;;39.30;17.90;;;;;;;0.17;81.07;99117.71;105487;1255;96690;-70
2023/12/07 06:01:19;;;;;;;40.90;20.20;;;;;;;0.16;80.95;99116.36;105503;1256;97394;-71
2023/12/07 06:03:47;;;;;;;37.30;17.90;;;;;;;0.16;80.94;99117.03;105685;1255;109853;-70
2023/12/07 06:06:15;;;;;;;37.40;18.10;;;;;;;0.16;80.86;99119.30;105687;1255;97045;-80
2023/12/07 06:08:42;;;;;;;36.20;17.10;;;;;;;0.17;81.01;99122.60;105368;1253;108225;-72
2023/12/07 06:11:10;;;;;;;37.50;17.50;;;;;;;0.21;80.94;99123.00;105769;1253;96604;-73
2023/12/07 06:13:38;;;;;;;34.40;16.90;;;;;;;0.25;81.00;99122.71;105361;1258;96644;-73
2023/12/07 06:16:06;;;;;;;39.30;17.60;;;;;;;0.26;80.95;99122.51;105440;1256;109352;-73
2023/12/07 06:18:34;;;;;;;39.30;19.10;;;;;;;0.27;80.96;99124.05;105761;1253;97120;-72
2023/12/07 06:21:03;;;;;;;40.20;17.60;;;;;;;0.27;81.02;99126.64;105464;1255;107264;-73
2023/12/07 06:23:31;;;;;;;34.80;16.70;;;;;;;0.29;80.95;99130.44;105290;1261;96602;-72
2023/12/07 06:25:58;;;;;;;35.50;17.40;;;;;;;0.29;81.02;99130.96;105569;1256;96608;-72
2023/12/07 06:28:26;;;;;;;38.50;18.20;;;;;;;0.29;80.94;99130.77;105512;1255;110633;-72
2023/12/07 06:30:57;;;;;;;35.40;17.10;;;;;;;0.28;81.02;99130.29;106288;1255;96613;-70
2023/12/07 06:33:25;;;;;;;37.20;19.10;;;;;;;0.28;81.03;99134.31;105746;1258;105893;-72
2023/12/07 06:35:53;;;;;;;37.30;18.50;;;;;;;0.29;81.06;99135.86;105327;1256;97531;-71
2023/12/07 06:38:20;;;;;;;36.40;17.80;;;;;;;0.30;81.02;99139.30;105500;1253;96594;-72
2023/12/07 06:40:50;;;;;;;37.40;17.30;;;;;;;0.32;81.01;99143.80;105624;1255;110041;-71
2023/12/07 06:43:17;;;;;;;38.30;17.40;;;;;;;0.32;81.16;99142.92;105490;1257;97530;-72
2023/12/07 06:45:45;;;;;;;36.20;17.50;;;;;;;0.33;80.86;99142.02;105448;1253;107640;-71
2023/12/07 06:48:13;;;;;;;39.10;18.40;;;;;;;0.33;81.12;99145.16;105794;1255;96613;-71
2023/12/07 06:50:41;;;;;;;38.60;19.10;;;;;;;0.32;81.18;99145.34;108647;1253;94643;-71
2023/12/07 06:53:09;;;;;;;40.40;19.40;;;;;;;0.32;81.16;99146.05;108227;1255;110034;-72
2023/12/07 06:55:37;;;;;;;36.80;17.90;;;;;;;0.33;81.14;99149.69;105605;1268;96602;-71
2023/12/07 06:58:10;;;;;;;38.10;18.20;;;;;;;0.34;81.17;99148.61;105697;1257;108033;-72
2023/12/07 07:00:38;;;;;;;38.80;17.90;;;;;;;0.35;80.99;99151.36;105698;1253;96642;-72
2023/12/07 07:03:08;;;;;;;38.10;18.50;;;;;;;0.35;80.90;99149.97;105400;1253;96616;-71
2023/12/07 07:05:36;;;;;;;35.60;17.60;;;;;;;0.36;81.09;99154.66;105384;1257;109755;-71
2023/12/07 07:08:06;;;;;;;40.40;19.40;;;;;;;0.37;80.95;99152.20;105629;1253;97219;-72
2023/12/07 07:10:34;;;;;;;40.50;18.80;;;;;;;0.38;80.97;99155.31;105491;1255;107413;-73
2023/12/07 07:13:06;;;;;;;38.30;17.70;;;;;;;0.37;81.16;99156.38;105650;1267;96624;-71
2023/12/07 07:15:33;;;;;;;42.50;21.00;;;;;;;0.38;81.23;99159.30;105383;1253;96615;-72
2023/12/07 07:18:01;;;;;;;37.20;20.10;;;;;;;0.38;80.96;99160.52;105344;1258;109433;-73
2023/12/07 07:20:30;;;;;;;40.60;20.90;;;;;;;0.39;81.11;99161.90;105410;1257;97934;-72
2023/12/07 07:22:57;;;;;;;40.90;21.10;;;;;;;0.38;81.32;99164.90;105322;1267;107102;-71
2023/12/07 07:25:26;;;;;;;38.00;18.90;;;;;;;0.37;81.01;99165.27;105415;1258;96707;-71
2023/12/07 07:27:54;;;;;;;38.00;19.20;;;;;;;0.35;81.20;99167.94;105413;1256;96523;-71
2023/12/07 07:30:22;;;;;;;37.60;18.40;;;;;;;0.36;81.18;99168.97;105140;1259;110018;-71
2023/12/07 07:32:50;;;;;;;39.60;18.60;;;;;;;0.37;81.33;99167.89;105391;1258;96738;-72
2023/12/07 07:35:18;;;;;;;39.30;19.40;;;;;;;0.37;81.16;99167.89;105516;1255;107635;-73
2023/12/07 07:37:46;;;;;;;42.40;21.80;;;;;;;0.37;81.08;99167.71;105375;1256;97825;-72
2023/12/07 07:40:14;;;;;;;42.30;21.40;;;;;;;0.37;81.10;99169.45;105472;1257;96619;-71
2023/12/07 07:42:42;;;;;;;44.30;22.10;;;;;;;0.37;81.26;99168.93;105576;1256;111245;-73
2023/12/07 07:45:10;;;;;;;39.80;19.20;;;;;;;0.38;81.30;99167.70;105489;1258;97427;-71
2023/12/07 07:47:38;;;;;;;40.30;21.10;;;;;;;0.38;81.37;99173.45;105668;1255;108304;-75
2023/12/07 07:50:06;;;;;;;47.10;23.50;;;;;;;0.39;81.23;99180.20;105434;1259;96603;-71
2023/12/07 07:52:35;;;;;;;43.70;21.90;;;;;;;0.39;81.32;99176.55;105696;1256;96594;-72
2023/12/07 07:55:04;;;;;;;44.00;21.40;;;;;;;0.42;81.17;99176.80;105454;1255;109990;-72
2023/12/07 07:57:33;;;;;;;40.70;20.70;;;;;;;0.45;81.18;99178.29;105602;1257;96504;-71
2023/12/07 08:00:00;;;;;;;43.30;22.50;;;;;;;0.47;81.17;99183.30;105361;1256;107574;-71
2023/12/07 08:02:28;;;;;;;43.90;21.20;;;;;;;0.49;81.26;99183.25;105695;1256;96605;-73
2023/12/07 08:04:56;;;;;;;40.50;21.60;;;;;;;0.49;81.27;99188.13;105693;1253;97966;-73
2023/12/07 08:07:25;;;;;;;42.90;22.70;;;;;;;0.51;81.24;99191.55;105614;1255;109358;-72
2023/12/07 08:09:53;;;;;;;44.80;21.80;;;;;;;0.52;81.21;99188.73;105283;1257;97410;-70
2023/12/07 08:12:24;;;;;;;41.00;21.40;;;;;;;0.53;81.41;99191.14;105178;1259;108281;-72
2023/12/07 08:14:52;;;;;;;42.00;23.00;;;;;;;0.53;81.44;99190.61;105074;1257;97558;-71
2023/12/07 08:17:21;;;;;;;45.80;23.40;;;;;;;0.54;81.41;99193.02;105098;1259;97964;-72
2023/12/07 08:19:49;;;;;;;47.30;22.60;;;;;;;0.55;81.31;99194.74;105356;1256;109347;-72
2023/12/07 08:22:17;;;;;;;43.50;22.10;;;;;;;0.55;81.18;99195.98;105420;1255;97917;-71
2023/12/07 08:24:44;;;;;;;44.90;22.20;;;;;;;0.55;81.49;99200.67;105309;1264;106116;-71
2023/12/07 08:27:21;;;;;;;45.00;22.70;;;;;;;0.56;81.37;99201.36;105676;1255;96723;-72
2023/12/07 08:29:49;;;;;;;44.60;21.60;;;;;;;0.56;81.46;99205.52;105580;1253;97922;-72
2023/12/07 08:32:19;;;;;;;45.30;21.40;;;;;;;0.59;81.34;99206.50;105466;1256;110025;-72
2023/12/07 08:34:46;;;;;;;46.20;22.80;;;;;;;0.61;81.36;99211.17;105739;1253;97416;-71
2023/12/07 08:37:14;;;;;;;41.20;21.20;;;;;;;0.61;81.47;99214.11;105526;1256;107222;-71
2023/12/07 08:39:42;;;;;;;41.10;19.30;;;;;;;0.63;81.31;99221.73;105291;1258;97659;-70
2023/12/07 08:42:10;;;;;;;39.40;18.20;;;;;;;0.65;81.45;99221.33;105417;1257;96694;-71
2023/12/07 08:44:38;;;;;;;41.70;21.20;;;;;;;0.66;81.44;99224.45;105453;1254;109362;-72
2023/12/07 08:47:06;;;;;;;39.40;19.20;;;;;;;0.66;81.38;99230.21;105514;1257;96495;-71
2023/12/07 08:49:34;;;;;;;41.10;21.10;;;;;;;0.65;81.32;99231.11;105431;1256;107394;-72
2023/12/07 08:52:02;;;;;;;38.60;19.10;;;;;;;0.65;81.38;99236.17;105091;1253;97502;-73
2023/12/07 08:54:36;;;;;;;41.30;21.20;;;;;;;0.64;81.37;99236.71;105432;1258;97849;-72
2023/12/07 08:57:04;;;;;;;40.00;21.30;;;;;;;0.64;81.25;99237.42;105582;1253;109907;-71
2023/12/07 08:59:31;;;;;;;38.20;19.20;;;;;;;0.61;81.24;99240.65;105176;1259;97914;-71
2023/12/07 09:01:59;;;;;;;38.80;20.10;;;;;;;0.62;81.20;99237.66;105895;1253;107415;-73
2023/12/07 09:04:27;;;;;;;41.20;21.60;;;;;;;0.59;81.43;99238.08;105574;1260;97431;-72
2023/12/07 09:06:56;;;;;;;44.30;22.30;;;;;;;0.58;81.33;99237.27;105695;1257;97550;-74
2023/12/07 09:09:25;;;;;;;44.60;22.30;;;;;;;0.59;81.42;99239.65;105764;1255;109501;-74
2023/12/07 09:11:54;;;;;;;42.40;22.40;;;;;;;0.60;81.34;99239.27;105471;1252;98471;-74
2023/12/07 09:14:22;;;;;;;39.20;19.20;;;;;;;0.61;81.28;99241.52;105288;1258;107677;-71
2023/12/07 09:16:50;;;;;;;39.40;20.20;;;;;;;0.62;81.21;99238.36;105799;1256;96622;-73
2023/12/07 09:19:17;;;;;;;42.60;21.40;;;;;;;0.61;81.39;99236.82;105614;1253;97827;-71
2023/12/07 09:21:45;;;;;;;40.60;21.10;;;;;;;0.63;81.42;99235.36;105431;1253;109022;-72
2023/12/07 09:24:13;;;;;;;42.30;21.10;;;;;;;0.63;81.17;99240.05;105370;1253;96510;-71
2023/12/07 09:26:41;;;;;;;43.80;22.10;;;;;;;0.64;81.50;99244.42;105334;1259;107096;-72
2023/12/07 09:29:09;;;;;;;42.50;21.20;;;;;;;0.67;81.41;99243.63;105363;1260;96594;-74
2023/12/07 09:31:37;;;;;;;42.20;21.70;;;;;;;0.68;81.31;99243.41;105586;1256;96616;-72
2023/12/07 09:34:04;;;;;;;43.00;21.90;;;;;;;0.70;81.38;99241.42;105363;1256;109930;-72
2023/12/07 09:36:39;;;;;;;46.40;22.60;;;;;;;0.75;81.28;99239.56;105176;1253;96678;-72
2023/12/07 09:39:07;;;;;;;47.70;24.50;;;;;;;0.80;81.40;99234.88;105249;1256;107706;-71
2023/12/07 09:41:36;;;;;;;43.70;22.40;;;;;;;0.82;81.47;99234.45;105103;1255;96698;-71
2023/12/07 09:44:04;;;;;;;43.80;23.70;;;;;;;0.84;81.49;99233.15;105515;1253;96883;-72
2023/12/07 09:46:32;;;;;;;42.30;22.70;;;;;;;0.86;81.35;99235.89;105215;1255;109515;-72
2023/12/07 09:49:00;;;;;;;41.40;21.60;;;;;;;0.87;81.24;99237.96;105837;1259;97297;-73
2023/12/07 09:51:31;;;;;;;39.20;20.60;;;;;;;0.87;81.29;99236.02;105623;1256;107687;-72
2023/12/07 09:54:01;;;;;;;42.30;21.10;;;;;;;0.88;81.39;99237.41;105858;1255;97418;-72
2023/12/07 09:56:28;;;;;;;45.00;22.60;;;;;;;0.89;81.29;99236.14;105665;1253;96505;-73
2023/12/07 09:58:56;;;;;;;48.20;25.70;;;;;;;0.93;81.40;99234.30;105520;1266;109932;-72
2023/12/07 10:01:31;;;;;;;46.20;24.20;;;;;;;0.96;81.59;99235.27;105662;1253;96620;-72
2023/12/07 10:04:19;;;;;;;47.90;24.80;;;;;;;0.95;81.20;99232.47;106875;1253;107692;-71
2023/12/07 10:06:47;;;;;;;41.80;23.00;;;;;;;0.95;81.44;99233.55;105664;1258;96665;-71
2023/12/07 10:09:16;;;;;;;49.80;24.00;;;;;;;0.96;81.21;99236.50;108696;1253;94422;-72
2023/12/07 10:12:02;;;;;;;59.10;31.10;;;;;;;0.96;81.10;99233.86;108749;1253;109970;-72
2023/12/07 10:14:30;;;;;;;44.50;23.00;;;;;;;0.96;81.27;99236.29;107737;1254;96623;-72
2023/12/07 10:16:57;;;;;;;42.00;21.50;;;;;;;0.98;81.27;99237.64;105534;1253;107137;-70
2023/12/07 10:19:27;;;;;;;42.60;22.40;;;;;;;0.98;81.31;99238.31;105731;1256;96629;-71
2023/12/07 10:21:59;;;;;;;44.80;23.80;;;;;;;1.00;81.27;99236.19;105671;1257;96601;-72
2023/12/07 10:24:28;;;;;;;44.80;23.40;;;;;;;1.03;81.17;99230.85;105768;1258;109495;-72
2023/12/07 10:26:56;;;;;;;46.10;24.00;;;;;;;1.06;81.28;99234.42;105749;1256;96681;-73
2023/12/07 10:29:34;;;;;;;44.60;24.30;;;;;;;1.07;81.11;99229.31;105244;1268;107590;-72
2023/12/07 10:32:04;;;;;;;41.20;23.70;;;;;;;1.08;81.10;99228.61;105386;1264;97438;-70
2023/12/07 10:34:35;;;;;;;42.80;21.60;;;;;;;1.05;81.20;99225.52;105333;1252;96613;-70
2023/12/07 10:37:04;;;;;;;43.80;22.90;;;;;;;1.04;81.34;99229.07;105597;1257;109945;-72
2023/12/07 10:39:32;;;;;;;41.30;22.70;;;;;;;1.02;81.08;99229.81;105479;1267;96603;-71
2023/12/07 10:42:09;;;;;;;39.10;20.60;;;;;;;1.03;81.18;99230.32;105486;1257;109087;-71
2023/12/07 10:44:41;;;;;;;44.40;22.40;;;;;;;1.02;81.35;99233.15;105300;1257;96601;-72
2023/12/07 10:47:10;;;;;;;43.50;21.50;;;;;;;1.01;81.21;99235.98;105367;1259;97632;-71
2023/12/07 10:49:44;;;;;;;38.60;20.00;;;;;;;1.00;81.44;99233.02;105328;1259;109407;-71
2023/12/07 10:52:22;;;;;;;39.50;20.90;;;;;;;1.00;81.29;99236.88;105350;1267;97535;-72
2023/12/07 10:55:05;;;;;;;43.00;21.90;;;;;;;0.96;81.37;99238.57;105627;1266;108576;-70
2023/12/07 10:57:35;;;;;;;39.50;21.00;;;;;;;0.95;81.37;99238.44;105161;1260;96707;-70
2023/12/07 11:00:03;;;;;;;41.70;21.60;;;;;;;0.93;81.21;99240.08;105349;1255;96715;-71
2023/12/07 11:03:35;;;;;;;41.80;21.80;;;;;;;0.94;81.43;99243.33;102363;1293;636024;-70
2023/12/07 11:06:05;;;;;;;43.10;22.60;;;;;;;0.95;81.42;99246.13;104978;1267;94303;-72
2023/12/07 11:08:40;;;;;;;40.00;21.40;;;;;;;0.94;81.01;99247.02;105590;1254;94295;-71
2023/12/07 11:11:20;;;;;;;44.60;22.00;;;;;;;0.92;81.13;99241.65;105513;1252;108035;-72
2023/12/07 11:13:54;;;;;;;42.80;22.40;;;;;;;0.88;80.94;99244.23;105435;1257;95475;-71
2023/12/07 11:16:36;;;;;;;44.30;24.40;;;;;;;0.85;81.23;99241.33;105507;1267;110322;-73
2023/12/07 11:19:04;;;;;;;47.30;24.70;;;;;;;0.83;81.05;99246.27;105812;1250;94686;-71
2023/12/07 11:21:36;;;;;;;44.60;23.50;;;;;;;0.84;81.23;99244.67;105784;1254;96001;-70